sensor_id;sensor_type;location;lat;lon;timestamp;P1;durP1;ratioP1;P2;durP2;ratioP2
13689;SDS011;6917;52.194;9.894;2022-12-07T00:01:23;12.13;;;8.13;;
13689;SDS011;6917;52.194;9.894;2022-12-07T00:03:51;4.53;;;4.20;;
13689;SDS011;6917;52.194;9.894;2022-12-07T00:06:17;8.73;;;7.37;;
13689;SDS011;6917;52.194;9.894;2022-12-07T00:08:44;8.70;;;6.93;;
13689;SDS011;6917;52.194;9.894;2022-12-07T00:11:17;12.33;;;6.43;;
13689;SDS011;6917;52.194;9.894;2022-12-07T00:13:47;10.67;;;8.13;;
13689;SDS011;6917;52.194;9.894;2022-12-07T00:16:17;10.93;;;10.03;;
13689;SDS011;6917;52.194;9.894;2022-12-07T00:18:44;9.53;;;8.30;;
13689;SDS011;6917;52.194;9.894;2022-12-07T00:23:44;6.33;;;5.83;;
13689;SDS011;6917;52.194;9.894;2022-12-07T00:26:11;5.73;;;4.23;;
13689;SDS011;6917;52.194;9.894;2022-12-07T00:28:36;3.77;;;3.23;;
13689;SDS011;6917;52.194;9.894;2022-12-07T00:31:06;4.63;;;3.57;;
13689;SDS011;6917;52.194;9.894;2022-12-07T00:33:36;15.90;;;12.87;;
13689;SDS011;6917;52.194;9.894;2022-12-07T00:36:03;5.37;;;4.97;;
13689;SDS011;6917;52.194;9.894;2022-12-07T00:38:32;6.30;;;5.80;;
13689;SDS011;6917;52.194;9.894;2022-12-07T00:40:59;6.10;;;4.37;;
13689;SDS011;6917;52.194;9.894;2022-12-07T00:43:26;8.90;;;7.47;;
13689;SDS011;6917;52.194;9.894;2022-12-07T00:45:52;5.47;;;5.10;;
13689;SDS011;6917;52.194;9.894;2022-12-07T00:48:19;4.40;;;4.07;;
13689;SDS011;6917;52.194;9.894;2022-12-07T00:50:44;14.30;;;9.27;;
13689;SDS011;6917;52.194;9.894;2022-12-07T00:53:09;9.23;;;8.47;;
13689;SDS011;6917;52.194;9.894;2022-12-07T00:55:35;8.40;;;7.63;;
13689;SDS011;6917;52.194;9.894;2022-12-07T00:58:01;9.80;;;8.80;;
13689;SDS011;6917;52.194;9.894;2022-12-07T01:00:27;17.67;;;7.90;;
13689;SDS011;6917;52.194;9.894;2022-12-07T01:02:52;11.40;;;9.87;;
13689;SDS011;6917;52.194;9.894;2022-12-07T01:05:17;2.77;;;2.57;;
13689;SDS011;6917;52.194;9.894;2022-12-07T01:07:43;14.00;;;8.13;;
13689;SDS011;6917;52.194;9.894;2022-12-07T01:10:08;10.57;;;9.67;;
13689;SDS011;6917;52.194;9.894;2022-12-07T01:12:34;8.73;;;7.93;;
13689;SDS011;6917;52.194;9.894;2022-12-07T01:14:59;9.83;;;8.93;;
13689;SDS011;6917;52.194;9.894;2022-12-07T01:17:25;11.00;;;9.17;;
13689;SDS011;6917;52.194;9.894;2022-12-07T01:19:50;8.00;;;7.13;;
13689;SDS011;6917;52.194;9.894;2022-12-07T01:22:15;9.20;;;7.13;;
13689;SDS011;6917;52.194;9.894;2022-12-07T01:24:40;5.37;;;4.87;;
13689;SDS011;6917;52.194;9.894;2022-12-07T01:27:06;5.73;;;5.23;;
13689;SDS011;6917;52.194;9.894;2022-12-07T01:29:31;8.47;;;7.77;;
13689;SDS011;6917;52.194;9.894;2022-12-07T01:31:56;6.77;;;6.10;;
13689;SDS011;6917;52.194;9.894;2022-12-07T01:34:22;6.87;;;6.30;;
13689;SDS011;6917;52.194;9.894;2022-12-07T01:36:47;7.03;;;6.43;;
13689;SDS011;6917;52.194;9.894;2022-12-07T01:39:12;12.03;;;10.93;;
13689;SDS011;6917;52.194;9.894;2022-12-07T01:41:39;10.50;;;6.50;;
13689;SDS011;6917;52.194;9.894;2022-12-07T01:46:56;7.33;;;6.73;;
13689;SDS011;6917;52.194;9.894;2022-12-07T01:54:53;11.10;;;10.10;;
13689;SDS011;6917;52.194;9.894;2022-12-07T01:57:21;8.43;;;7.73;;
13689;SDS011;6917;52.194;9.894;2022-12-07T01:59:47;13.23;;;10.80;;
13689;SDS011;6917;52.194;9.894;2022-12-07T02:02:19;9.97;;;9.13;;
13689;SDS011;6917;52.194;9.894;2022-12-07T02:04:47;12.03;;;10.60;;
13689;SDS011;6917;52.194;9.894;2022-12-07T02:07:14;7.80;;;7.20;;
13689;SDS011;6917;52.194;9.894;2022-12-07T02:09:40;8.97;;;8.10;;
13689;SDS011;6917;52.194;9.894;2022-12-07T02:12:05;7.63;;;6.93;;
13689;SDS011;6917;52.194;9.894;2022-12-07T02:14:31;10.40;;;9.40;;
13689;SDS011;6917;52.194;9.894;2022-12-07T02:22:31;14.10;;;11.03;;
13689;SDS011;6917;52.194;9.894;2022-12-07T02:28:07;21.77;;;16.07;;
13689;SDS011;6917;52.194;9.894;2022-12-07T02:30:44;11.13;;;10.13;;
13689;SDS011;6917;52.194;9.894;2022-12-07T02:33:16;32.13;;;19.33;;
13689;SDS011;6917;52.194;9.894;2022-12-07T02:38:27;20.93;;;17.00;;
13689;SDS011;6917;52.194;9.894;2022-12-07T02:41:04;10.20;;;9.23;;
13689;SDS011;6917;52.194;9.894;2022-12-07T02:43:39;12.97;;;11.53;;
13689;SDS011;6917;52.194;9.894;2022-12-07T02:46:08;13.37;;;11.97;;
13689;SDS011;6917;52.194;9.894;2022-12-07T02:48:37;16.40;;;14.90;;
13689;SDS011;6917;52.194;9.894;2022-12-07T02:51:04;11.03;;;10.13;;
13689;SDS011;6917;52.194;9.894;2022-12-07T02:53:30;11.93;;;9.50;;
13689;SDS011;6917;52.194;9.894;2022-12-07T02:56:19;23.23;;;14.30;;
13689;SDS011;6917;52.194;9.894;2022-12-07T03:07:11;12.53;;;11.30;;
13689;SDS011;6917;52.194;9.894;2022-12-07T03:09:44;12.37;;;11.10;;
13689;SDS011;6917;52.194;9.894;2022-12-07T03:12:35;16.57;;;14.60;;
13689;SDS011;6917;52.194;9.894;2022-12-07T03:15:31;20.53;;;12.40;;
13689;SDS011;6917;52.194;9.894;2022-12-07T03:17:58;16.17;;;12.20;;
13689;SDS011;6917;52.194;9.894;2022-12-07T03:20:25;10.60;;;9.57;;
13689;SDS011;6917;52.194;9.894;2022-12-07T03:22:54;13.53;;;9.00;;
13689;SDS011;6917;52.194;9.894;2022-12-07T03:25:19;10.67;;;9.50;;
13689;SDS011;6917;52.194;9.894;2022-12-07T03:27:48;10.63;;;9.77;;
13689;SDS011;6917;52.194;9.894;2022-12-07T03:30:19;6.60;;;6.00;;
13689;SDS011;6917;52.194;9.894;2022-12-07T03:32:54;8.20;;;7.57;;
13689;SDS011;6917;52.194;9.894;2022-12-07T03:38:05;9.20;;;8.40;;
13689;SDS011;6917;52.194;9.894;2022-12-07T03:40:35;14.07;;;9.57;;
13689;SDS011;6917;52.194;9.894;2022-12-07T03:43:05;8.90;;;7.87;;
13689;SDS011;6917;52.194;9.894;2022-12-07T03:45:39;14.23;;;9.43;;
13689;SDS011;6917;52.194;9.894;2022-12-07T03:48:23;11.17;;;10.07;;
13689;SDS011;6917;52.194;9.894;2022-12-07T03:50:55;9.60;;;7.83;;
13689;SDS011;6917;52.194;9.894;2022-12-07T03:53:32;6.10;;;5.70;;
13689;SDS011;6917;52.194;9.894;2022-12-07T03:56:02;10.07;;;9.20;;
13689;SDS011;6917;52.194;9.894;2022-12-07T03:58:28;8.17;;;7.53;;
13689;SDS011;6917;52.194;9.894;2022-12-07T04:00:55;7.33;;;6.70;;
13689;SDS011;6917;52.194;9.894;2022-12-07T04:03:20;13.40;;;8.20;;
13689;SDS011;6917;52.194;9.894;2022-12-07T04:05:46;12.83;;;8.93;;
13689;SDS011;6917;52.194;9.894;2022-12-07T04:08:12;7.70;;;6.47;;
13689;SDS011;6917;52.194;9.894;2022-12-07T04:10:37;9.73;;;8.87;;
13689;SDS011;6917;52.194;9.894;2022-12-07T04:13:02;6.90;;;5.13;;
13689;SDS011;6917;52.194;9.894;2022-12-07T04:15:27;18.80;;;10.40;;
13689;SDS011;6917;52.194;9.894;2022-12-07T04:17:53;8.60;;;7.50;;
13689;SDS011;6917;52.194;9.894;2022-12-07T04:20:19;12.27;;;7.33;;
13689;SDS011;6917;52.194;9.894;2022-12-07T04:22:46;10.63;;;9.67;;
13689;SDS011;6917;52.194;9.894;2022-12-07T04:25:11;10.57;;;9.57;;
13689;SDS011;6917;52.194;9.894;2022-12-07T04:27:36;7.90;;;6.53;;
13689;SDS011;6917;52.194;9.894;2022-12-07T04:30:02;7.13;;;6.53;;
13689;SDS011;6917;52.194;9.894;2022-12-07T04:32:27;4.87;;;4.30;;
13689;SDS011;6917;52.194;9.894;2022-12-07T04:34:53;2.90;;;2.73;;
13689;SDS011;6917;52.194;9.894;2022-12-07T04:37:18;8.83;;;5.13;;
13689;SDS011;6917;52.194;9.894;2022-12-07T04:39:43;4.87;;;4.37;;
13689;SDS011;6917;52.194;9.894;2022-12-07T04:42:09;5.73;;;5.30;;
13689;SDS011;6917;52.194;9.894;2022-12-07T04:44:36;7.47;;;6.53;;
13689;SDS011;6917;52.194;9.894;2022-12-07T04:47:01;9.70;;;8.70;;
13689;SDS011;6917;52.194;9.894;2022-12-07T04:49:27;22.70;;;6.77;;
13689;SDS011;6917;52.194;9.894;2022-12-07T04:51:52;7.77;;;6.13;;
13689;SDS011;6917;52.194;9.894;2022-12-07T04:54:17;6.73;;;6.13;;
13689;SDS011;6917;52.194;9.894;2022-12-07T04:56:43;10.10;;;8.27;;
13689;SDS011;6917;52.194;9.894;2022-12-07T04:59:09;7.93;;;7.20;;
13689;SDS011;6917;52.194;9.894;2022-12-07T05:01:36;14.67;;;8.63;;
13689;SDS011;6917;52.194;9.894;2022-12-07T05:04:01;8.73;;;7.93;;
13689;SDS011;6917;52.194;9.894;2022-12-07T05:06:27;14.73;;;4.33;;
13689;SDS011;6917;52.194;9.894;2022-12-07T05:08:52;22.07;;;8.73;;
13689;SDS011;6917;52.194;9.894;2022-12-07T05:11:18;7.73;;;6.90;;
13689;SDS011;6917;52.194;9.894;2022-12-07T05:14:03;6.03;;;5.53;;
13689;SDS011;6917;52.194;9.894;2022-12-07T05:16:41;4.70;;;4.40;;
13689;SDS011;6917;52.194;9.894;2022-12-07T05:19:08;6.77;;;6.13;;
13689;SDS011;6917;52.194;9.894;2022-12-07T05:21:34;6.37;;;5.67;;
13689;SDS011;6917;52.194;9.894;2022-12-07T05:23:59;7.43;;;6.83;;
13689;SDS011;6917;52.194;9.894;2022-12-07T05:26:25;9.43;;;6.67;;
13689;SDS011;6917;52.194;9.894;2022-12-07T05:28:54;15.23;;;4.90;;
13689;SDS011;6917;52.194;9.894;2022-12-07T05:31:20;11.30;;;6.57;;
13689;SDS011;6917;52.194;9.894;2022-12-07T05:33:46;8.57;;;7.20;;
13689;SDS011;6917;52.194;9.894;2022-12-07T05:36:12;6.87;;;6.27;;
13689;SDS011;6917;52.194;9.894;2022-12-07T05:38:38;8.63;;;5.30;;
13689;SDS011;6917;52.194;9.894;2022-12-07T05:41:03;9.97;;;5.80;;
13689;SDS011;6917;52.194;9.894;2022-12-07T05:43:30;4.33;;;2.67;;
13689;SDS011;6917;52.194;9.894;2022-12-07T05:45:56;8.20;;;7.10;;
13689;SDS011;6917;52.194;9.894;2022-12-07T05:48:21;6.33;;;5.73;;
13689;SDS011;6917;52.194;9.894;2022-12-07T05:50:47;9.33;;;8.53;;
13689;SDS011;6917;52.194;9.894;2022-12-07T05:53:13;12.93;;;6.73;;
13689;SDS011;6917;52.194;9.894;2022-12-07T05:55:39;11.40;;;5.70;;
13689;SDS011;6917;52.194;9.894;2022-12-07T05:58:04;8.40;;;4.27;;
13689;SDS011;6917;52.194;9.894;2022-12-07T06:00:48;4.07;;;3.77;;
13689;SDS011;6917;52.194;9.894;2022-12-07T06:03:13;5.10;;;4.53;;
13689;SDS011;6917;52.194;9.894;2022-12-07T06:05:38;5.90;;;5.33;;
13689;SDS011;6917;52.194;9.894;2022-12-07T06:08:03;17.53;;;6.17;;
13689;SDS011;6917;52.194;9.894;2022-12-07T06:10:29;2.90;;;2.70;;
13689;SDS011;6917;52.194;9.894;2022-12-07T06:12:54;3.63;;;3.33;;
13689;SDS011;6917;52.194;9.894;2022-12-07T06:15:19;3.13;;;2.90;;
13689;SDS011;6917;52.194;9.894;2022-12-07T06:17:44;2.50;;;2.33;;
13689;SDS011;6917;52.194;9.894;2022-12-07T06:20:10;1.83;;;1.70;;
13689;SDS011;6917;52.194;9.894;2022-12-07T06:22:35;19.60;;;2.53;;
13689;SDS011;6917;52.194;9.894;2022-12-07T06:25:00;9.17;;;4.83;;
13689;SDS011;6917;52.194;9.894;2022-12-07T06:27:26;15.40;;;4.93;;
13689;SDS011;6917;52.194;9.894;2022-12-07T06:29:52;5.57;;;3.60;;
13689;SDS011;6917;52.194;9.894;2022-12-07T06:32:17;9.47;;;4.77;;
13689;SDS011;6917;52.194;9.894;2022-12-07T06:34:42;2.37;;;2.20;;
13689;SDS011;6917;52.194;9.894;2022-12-07T06:37:07;5.30;;;4.20;;
13689;SDS011;6917;52.194;9.894;2022-12-07T06:39:33;9.97;;;3.37;;
13689;SDS011;6917;52.194;9.894;2022-12-07T06:41:58;13.33;;;4.43;;
13689;SDS011;6917;52.194;9.894;2022-12-07T06:44:24;2.27;;;1.90;;
13689;SDS011;6917;52.194;9.894;2022-12-07T06:46:50;2.27;;;2.10;;
13689;SDS011;6917;52.194;9.894;2022-12-07T06:49:16;2.37;;;2.23;;
13689;SDS011;6917;52.194;9.894;2022-12-07T06:51:41;4.03;;;1.77;;
13689;SDS011;6917;52.194;9.894;2022-12-07T06:54:10;8.07;;;3.00;;
13689;SDS011;6917;52.194;9.894;2022-12-07T06:56:36;2.27;;;2.13;;
13689;SDS011;6917;52.194;9.894;2022-12-07T06:59:02;1.87;;;1.23;;
13689;SDS011;6917;52.194;9.894;2022-12-07T07:01:28;2.60;;;0.90;;
13689;SDS011;6917;52.194;9.894;2022-12-07T07:03:53;1.87;;;1.77;;
13689;SDS011;6917;52.194;9.894;2022-12-07T07:06:19;2.77;;;1.70;;
13689;SDS011;6917;52.194;9.894;2022-12-07T07:08:44;1.67;;;1.57;;
13689;SDS011;6917;52.194;9.894;2022-12-07T07:11:09;4.30;;;3.33;;
13689;SDS011;6917;52.194;9.894;2022-12-07T07:13:35;1.67;;;1.57;;
13689;SDS011;6917;52.194;9.894;2022-12-07T07:16:00;4.97;;;3.40;;
13689;SDS011;6917;52.194;9.894;2022-12-07T07:18:26;21.00;;;1.67;;
13689;SDS011;6917;52.194;9.894;2022-12-07T07:20:51;1.90;;;1.70;;
13689;SDS011;6917;52.194;9.894;2022-12-07T07:23:17;7.13;;;0.57;;
13689;SDS011;6917;52.194;9.894;2022-12-07T07:25:43;3.90;;;1.77;;
13689;SDS011;6917;52.194;9.894;2022-12-07T07:28:09;11.73;;;3.10;;
13689;SDS011;6917;52.194;9.894;2022-12-07T07:30:34;4.73;;;3.33;;
13689;SDS011;6917;52.194;9.894;2022-12-07T07:33:00;7.70;;;2.93;;
13689;SDS011;6917;52.194;9.894;2022-12-07T07:35:27;1.00;;;1.00;;
13689;SDS011;6917;52.194;9.894;2022-12-07T07:37:54;1.00;;;1.00;;
13689;SDS011;6917;52.194;9.894;2022-12-07T07:40:19;1.77;;;1.67;;
13689;SDS011;6917;52.194;9.894;2022-12-07T07:42:48;3.67;;;1.90;;
13689;SDS011;6917;52.194;9.894;2022-12-07T07:45:18;1.07;;;1.07;;
13689;SDS011;6917;52.194;9.894;2022-12-07T07:47:44;3.80;;;0.43;;
13689;SDS011;6917;52.194;9.894;2022-12-07T07:50:09;3.97;;;1.40;;
13689;SDS011;6917;52.194;9.894;2022-12-07T07:52:35;0.60;;;0.60;;
13689;SDS011;6917;52.194;9.894;2022-12-07T07:55:00;0.97;;;0.87;;
13689;SDS011;6917;52.194;9.894;2022-12-07T07:57:26;1.73;;;1.50;;
13689;SDS011;6917;52.194;9.894;2022-12-07T07:59:52;1.13;;;1.03;;
13689;SDS011;6917;52.194;9.894;2022-12-07T08:02:18;1.27;;;1.13;;
13689;SDS011;6917;52.194;9.894;2022-12-07T08:04:44;1.13;;;1.13;;
13689;SDS011;6917;52.194;9.894;2022-12-07T08:07:10;3.73;;;1.57;;
13689;SDS011;6917;52.194;9.894;2022-12-07T08:09:35;1.67;;;1.47;;
13689;SDS011;6917;52.194;9.894;2022-12-07T08:12:01;0.80;;;0.80;;
13689;SDS011;6917;52.194;9.894;2022-12-07T08:14:26;1.47;;;1.03;;
13689;SDS011;6917;52.194;9.894;2022-12-07T08:16:53;0.67;;;0.67;;
13689;SDS011;6917;52.194;9.894;2022-12-07T08:19:19;15.57;;;1.70;;
13689;SDS011;6917;52.194;9.894;2022-12-07T08:21:44;2.53;;;1.30;;
13689;SDS011;6917;52.194;9.894;2022-12-07T08:24:09;1.37;;;0.80;;
13689;SDS011;6917;52.194;9.894;2022-12-07T08:26:35;6.17;;;1.70;;
13689;SDS011;6917;52.194;9.894;2022-12-07T08:29:00;0.83;;;0.83;;
13689;SDS011;6917;52.194;9.894;2022-12-07T08:31:25;0.80;;;0.80;;
13689;SDS011;6917;52.194;9.894;2022-12-07T08:33:52;0.60;;;0.60;;
13689;SDS011;6917;52.194;9.894;2022-12-07T08:36:18;1.00;;;0.97;;
13689;SDS011;6917;52.194;9.894;2022-12-07T08:38:43;4.13;;;0.50;;
13689;SDS011;6917;52.194;9.894;2022-12-07T08:41:09;0.40;;;0.40;;
13689;SDS011;6917;52.194;9.894;2022-12-07T08:43:34;0.80;;;0.80;;
13689;SDS011;6917;52.194;9.894;2022-12-07T08:48:40;1.67;;;1.33;;
13689;SDS011;6917;52.194;9.894;2022-12-07T08:51:10;2.53;;;0.70;;
13689;SDS011;6917;52.194;9.894;2022-12-07T08:53:36;0.07;;;0.07;;
13689;SDS011;6917;52.194;9.894;2022-12-07T08:56:03;1.77;;;1.50;;
13689;SDS011;6917;52.194;9.894;2022-12-07T08:58:29;1.33;;;1.23;;
13689;SDS011;6917;52.194;9.894;2022-12-07T09:00:55;2.10;;;1.60;;
13689;SDS011;6917;52.194;9.894;2022-12-07T09:03:20;5.33;;;1.80;;
13689;SDS011;6917;52.194;9.894;2022-12-07T09:05:45;5.20;;;1.77;;
13689;SDS011;6917;52.194;9.894;2022-12-07T09:08:11;1.40;;;1.30;;
13689;SDS011;6917;52.194;9.894;2022-12-07T09:10:36;2.07;;;1.37;;
13689;SDS011;6917;52.194;9.894;2022-12-07T09:13:01;5.43;;;1.00;;
13689;SDS011;6917;52.194;9.894;2022-12-07T09:15:30;1.27;;;1.20;;
13689;SDS011;6917;52.194;9.894;2022-12-07T09:17:56;1.03;;;1.03;;
13689;SDS011;6917;52.194;9.894;2022-12-07T09:20:21;6.83;;;2.73;;
13689;SDS011;6917;52.194;9.894;2022-12-07T09:22:47;5.90;;;3.47;;
13689;SDS011;6917;52.194;9.894;2022-12-07T09:25:12;2.50;;;1.87;;
13689;SDS011;6917;52.194;9.894;2022-12-07T09:27:37;1.87;;;1.60;;
13689;SDS011;6917;52.194;9.894;2022-12-07T09:30:03;1.97;;;1.83;;
13689;SDS011;6917;52.194;9.894;2022-12-07T09:32:29;0.50;;;0.50;;
13689;SDS011;6917;52.194;9.894;2022-12-07T09:34:54;11.27;;;1.63;;
13689;SDS011;6917;52.194;9.894;2022-12-07T09:37:20;3.13;;;1.53;;
13689;SDS011;6917;52.194;9.894;2022-12-07T09:39:45;3.07;;;1.90;;
13689;SDS011;6917;52.194;9.894;2022-12-07T09:42:25;9.17;;;2.50;;
13689;SDS011;6917;52.194;9.894;2022-12-07T09:44:53;1.27;;;1.27;;
13689;SDS011;6917;52.194;9.894;2022-12-07T09:47:18;0.80;;;0.70;;
13689;SDS011;6917;52.194;9.894;2022-12-07T09:49:44;1.37;;;1.10;;
13689;SDS011;6917;52.194;9.894;2022-12-07T09:52:17;1.30;;;0.60;;
13689;SDS011;6917;52.194;9.894;2022-12-07T09:54:46;7.20;;;1.33;;
13689;SDS011;6917;52.194;9.894;2022-12-07T09:57:13;10.93;;;1.97;;
13689;SDS011;6917;52.194;9.894;2022-12-07T09:59:39;1.13;;;0.80;;
13689;SDS011;6917;52.194;9.894;2022-12-07T10:05:00;0.90;;;0.90;;
13689;SDS011;6917;52.194;9.894;2022-12-07T10:07:26;2.70;;;1.40;;
13689;SDS011;6917;52.194;9.894;2022-12-07T10:09:51;3.17;;;2.70;;
13689;SDS011;6917;52.194;9.894;2022-12-07T10:12:16;4.87;;;1.53;;
13689;SDS011;6917;52.194;9.894;2022-12-07T10:15:00;1.17;;;1.17;;
13689;SDS011;6917;52.194;9.894;2022-12-07T10:23:04;5.10;;;1.23;;
13689;SDS011;6917;52.194;9.894;2022-12-07T10:25:31;2.53;;;1.33;;
13689;SDS011;6917;52.194;9.894;2022-12-07T10:30:23;0.23;;;0.20;;
13689;SDS011;6917;52.194;9.894;2022-12-07T10:32:49;12.70;;;1.20;;
13689;SDS011;6917;52.194;9.894;2022-12-07T10:35:27;1.60;;;1.33;;
13689;SDS011;6917;52.194;9.894;2022-12-07T10:37:55;0.77;;;0.77;;
13689;SDS011;6917;52.194;9.894;2022-12-07T10:40:24;0.30;;;0.30;;
13689;SDS011;6917;52.194;9.894;2022-12-07T10:43:00;2.63;;;1.33;;
13689;SDS011;6917;52.194;9.894;2022-12-07T10:45:30;3.03;;;0.60;;
13689;SDS011;6917;52.194;9.894;2022-12-07T10:48:09;0.73;;;0.73;;
13689;SDS011;6917;52.194;9.894;2022-12-07T10:50:45;0.23;;;0.23;;
13689;SDS011;6917;52.194;9.894;2022-12-07T10:53:30;3.43;;;1.17;;
13689;SDS011;6917;52.194;9.894;2022-12-07T11:02:02;0.97;;;0.97;;
13689;SDS011;6917;52.194;9.894;2022-12-07T11:04:43;1.27;;;1.20;;
13689;SDS011;6917;52.194;9.894;2022-12-07T11:13:14;1.13;;;1.03;;
13689;SDS011;6917;52.194;9.894;2022-12-07T11:18:34;2.10;;;1.50;;
13689;SDS011;6917;52.194;9.894;2022-12-07T11:34:47;3.93;;;1.03;;
13689;SDS011;6917;52.194;9.894;2022-12-07T11:37:34;4.03;;;1.40;;
13689;SDS011;6917;52.194;9.894;2022-12-07T11:42:56;1.53;;;0.97;;
13689;SDS011;6917;52.194;9.894;2022-12-07T11:45:29;2.73;;;2.07;;
13689;SDS011;6917;52.194;9.894;2022-12-07T11:48:02;0.37;;;0.37;;
13689;SDS011;6917;52.194;9.894;2022-12-07T11:50:38;2.50;;;2.30;;
13689;SDS011;6917;52.194;9.894;2022-12-07T11:58:12;3.20;;;2.43;;
13689;SDS011;6917;52.194;9.894;2022-12-07T12:00:46;2.33;;;2.00;;
13689;SDS011;6917;52.194;9.894;2022-12-07T12:03:23;1.70;;;1.57;;
13689;SDS011;6917;52.194;9.894;2022-12-07T12:05:56;22.30;;;1.30;;
13689;SDS011;6917;52.194;9.894;2022-12-07T12:08:24;1.50;;;1.40;;
13689;SDS011;6917;52.194;9.894;2022-12-07T12:22:33;0.20;;;0.20;;
13689;SDS011;6917;52.194;9.894;2022-12-07T12:25:04;0.73;;;0.73;;
13689;SDS011;6917;52.194;9.894;2022-12-07T12:27:33;0.60;;;0.43;;
13689;SDS011;6917;52.194;9.894;2022-12-07T12:30:03;0.07;;;0.07;;
13689;SDS011;6917;52.194;9.894;2022-12-07T12:32:34;1.30;;;1.00;;
13689;SDS011;6917;52.194;9.894;2022-12-07T12:38:20;4.00;;;0.20;;
13689;SDS011;6917;52.194;9.894;2022-12-07T12:40:49;2.73;;;0.87;;
13689;SDS011;6917;52.194;9.894;2022-12-07T12:48:55;4.93;;;0.60;;
13689;SDS011;6917;52.194;9.894;2022-12-07T12:51:39;4.43;;;1.50;;
13689;SDS011;6917;52.194;9.894;2022-12-07T12:54:19;3.50;;;3.30;;
13689;SDS011;6917;52.194;9.894;2022-12-07T12:56:47;3.03;;;1.33;;
13689;SDS011;6917;52.194;9.894;2022-12-07T12:59:21;5.27;;;1.60;;
13689;SDS011;6917;52.194;9.894;2022-12-07T13:01:50;2.37;;;1.57;;
13689;SDS011;6917;52.194;9.894;2022-12-07T13:06:49;2.33;;;0.77;;
13689;SDS011;6917;52.194;9.894;2022-12-07T13:09:33;2.20;;;2.00;;
13689;SDS011;6917;52.194;9.894;2022-12-07T13:12:20;3.73;;;2.90;;
13689;SDS011;6917;52.194;9.894;2022-12-07T13:14:53;6.57;;;2.80;;
13689;SDS011;6917;52.194;9.894;2022-12-07T13:24:56;1.73;;;1.33;;
13689;SDS011;6917;52.194;9.894;2022-12-07T13:27:22;10.33;;;1.63;;
13689;SDS011;6917;52.194;9.894;2022-12-07T13:29:51;0.80;;;0.80;;
13689;SDS011;6917;52.194;9.894;2022-12-07T13:32:24;0.50;;;0.50;;
13689;SDS011;6917;52.194;9.894;2022-12-07T13:34:51;0.93;;;0.87;;
13689;SDS011;6917;52.194;9.894;2022-12-07T13:37:27;0.30;;;0.30;;
13689;SDS011;6917;52.194;9.894;2022-12-07T13:39:56;2.67;;;0.77;;
13689;SDS011;6917;52.194;9.894;2022-12-07T13:44:52;9.80;;;2.07;;
13689;SDS011;6917;52.194;9.894;2022-12-07T13:47:22;4.30;;;1.93;;
13689;SDS011;6917;52.194;9.894;2022-12-07T13:52:55;2.77;;;2.03;;
13689;SDS011;6917;52.194;9.894;2022-12-07T13:55:21;2.33;;;1.67;;
13689;SDS011;6917;52.194;9.894;2022-12-07T13:57:47;1.23;;;0.77;;
13689;SDS011;6917;52.194;9.894;2022-12-07T14:00:16;10.57;;;0.53;;
13689;SDS011;6917;52.194;9.894;2022-12-07T14:05:31;0.43;;;0.33;;
13689;SDS011;6917;52.194;9.894;2022-12-07T14:10:32;1.33;;;1.03;;
13689;SDS011;6917;52.194;9.894;2022-12-07T14:12:59;3.30;;;0.97;;
13689;SDS011;6917;52.194;9.894;2022-12-07T14:15:27;1.60;;;0.33;;
13689;SDS011;6917;52.194;9.894;2022-12-07T14:17:56;1.07;;;0.80;;
13689;SDS011;6917;52.194;9.894;2022-12-07T14:20:35;5.97;;;1.47;;
13689;SDS011;6917;52.194;9.894;2022-12-07T14:23:19;2.57;;;1.30;;
13689;SDS011;6917;52.194;9.894;2022-12-07T14:25:49;1.23;;;1.10;;
13689;SDS011;6917;52.194;9.894;2022-12-07T14:28:30;5.83;;;1.87;;
13689;SDS011;6917;52.194;9.894;2022-12-07T14:30:57;1.33;;;0.87;;
13689;SDS011;6917;52.194;9.894;2022-12-07T14:33:23;2.30;;;2.10;;
13689;SDS011;6917;52.194;9.894;2022-12-07T14:35:49;15.13;;;1.70;;
13689;SDS011;6917;52.194;9.894;2022-12-07T14:38:14;3.17;;;2.87;;
13689;SDS011;6917;52.194;9.894;2022-12-07T14:40:39;22.20;;;4.33;;
13689;SDS011;6917;52.194;9.894;2022-12-07T14:43:05;3.83;;;2.83;;
13689;SDS011;6917;52.194;9.894;2022-12-07T14:45:36;4.33;;;2.73;;
13689;SDS011;6917;52.194;9.894;2022-12-07T14:48:01;3.53;;;2.23;;
13689;SDS011;6917;52.194;9.894;2022-12-07T14:50:27;5.77;;;2.47;;
13689;SDS011;6917;52.194;9.894;2022-12-07T14:52:56;1.83;;;1.73;;
13689;SDS011;6917;52.194;9.894;2022-12-07T14:55:27;4.73;;;1.93;;
13689;SDS011;6917;52.194;9.894;2022-12-07T14:57:54;2.93;;;1.80;;
13689;SDS011;6917;52.194;9.894;2022-12-07T15:00:20;9.63;;;1.47;;
13689;SDS011;6917;52.194;9.894;2022-12-07T15:02:47;2.93;;;2.60;;
13689;SDS011;6917;52.194;9.894;2022-12-07T15:05:13;5.23;;;3.07;;
13689;SDS011;6917;52.194;9.894;2022-12-07T15:07:39;0.77;;;0.57;;
13689;SDS011;6917;52.194;9.894;2022-12-07T15:10:04;1.63;;;1.53;;
13689;SDS011;6917;52.194;9.894;2022-12-07T15:12:31;17.47;;;1.93;;
13689;SDS011;6917;52.194;9.894;2022-12-07T15:14:56;1.47;;;1.23;;
13689;SDS011;6917;52.194;9.894;2022-12-07T15:17:21;4.53;;;1.63;;
13689;SDS011;6917;52.194;9.894;2022-12-07T15:19:46;0.60;;;0.60;;
13689;SDS011;6917;52.194;9.894;2022-12-07T15:22:12;6.63;;;1.37;;
13689;SDS011;6917;52.194;9.894;2022-12-07T15:24:37;1.10;;;0.90;;
13689;SDS011;6917;52.194;9.894;2022-12-07T15:27:02;1.10;;;1.00;;
13689;SDS011;6917;52.194;9.894;2022-12-07T15:29:28;3.37;;;1.83;;
13689;SDS011;6917;52.194;9.894;2022-12-07T15:31:54;1.47;;;1.33;;
13689;SDS011;6917;52.194;9.894;2022-12-07T15:34:19;2.70;;;2.00;;
13689;SDS011;6917;52.194;9.894;2022-12-07T15:36:45;1.70;;;1.60;;
13689;SDS011;6917;52.194;9.894;2022-12-07T15:39:10;1.10;;;1.07;;
13689;SDS011;6917;52.194;9.894;2022-12-07T15:41:36;1.60;;;1.50;;
13689;SDS011;6917;52.194;9.894;2022-12-07T15:44:01;1.27;;;1.00;;
13689;SDS011;6917;52.194;9.894;2022-12-07T15:46:45;0.43;;;0.43;;
13689;SDS011;6917;52.194;9.894;2022-12-07T15:49:12;10.83;;;1.27;;
13689;SDS011;6917;52.194;9.894;2022-12-07T15:51:39;8.70;;;1.43;;
13689;SDS011;6917;52.194;9.894;2022-12-07T15:54:06;3.23;;;1.23;;
13689;SDS011;6917;52.194;9.894;2022-12-07T15:56:31;1.57;;;0.90;;
13689;SDS011;6917;52.194;9.894;2022-12-07T15:58:57;5.97;;;4.53;;
13689;SDS011;6917;52.194;9.894;2022-12-07T16:01:22;0.70;;;0.70;;
13689;SDS011;6917;52.194;9.894;2022-12-07T16:03:47;4.07;;;0.63;;
13689;SDS011;6917;52.194;9.894;2022-12-07T16:06:16;0.93;;;0.93;;
13689;SDS011;6917;52.194;9.894;2022-12-07T16:08:43;0.53;;;0.53;;
13689;SDS011;6917;52.194;9.894;2022-12-07T16:11:10;0.77;;;0.77;;
13689;SDS011;6917;52.194;9.894;2022-12-07T16:13:35;0.20;;;0.20;;
13689;SDS011;6917;52.194;9.894;2022-12-07T16:16:08;1.63;;;1.50;;
13689;SDS011;6917;52.194;9.894;2022-12-07T16:18:36;1.60;;;1.07;;
13689;SDS011;6917;52.194;9.894;2022-12-07T16:21:02;0.50;;;0.50;;
13689;SDS011;6917;52.194;9.894;2022-12-07T16:23:28;1.80;;;1.47;;
13689;SDS011;6917;52.194;9.894;2022-12-07T16:25:53;1.57;;;1.07;;
13689;SDS011;6917;52.194;9.894;2022-12-07T16:28:19;0.60;;;0.60;;
13689;SDS011;6917;52.194;9.894;2022-12-07T16:30:44;2.67;;;1.37;;
13689;SDS011;6917;52.194;9.894;2022-12-07T16:33:10;1.97;;;1.87;;
13689;SDS011;6917;52.194;9.894;2022-12-07T16:35:38;2.47;;;1.53;;
13689;SDS011;6917;52.194;9.894;2022-12-07T16:38:05;1.77;;;1.50;;
13689;SDS011;6917;52.194;9.894;2022-12-07T16:40:31;0.67;;;0.67;;
13689;SDS011;6917;52.194;9.894;2022-12-07T16:42:56;14.20;;;1.70;;
13689;SDS011;6917;52.194;9.894;2022-12-07T16:45:21;1.30;;;1.13;;
13689;SDS011;6917;52.194;9.894;2022-12-07T16:47:47;1.00;;;1.00;;
13689;SDS011;6917;52.194;9.894;2022-12-07T16:50:12;23.57;;;1.57;;
13689;SDS011;6917;52.194;9.894;2022-12-07T16:52:37;14.77;;;2.03;;
13689;SDS011;6917;52.194;9.894;2022-12-07T16:55:02;2.87;;;2.20;;
13689;SDS011;6917;52.194;9.894;2022-12-07T16:57:28;1.03;;;1.03;;
13689;SDS011;6917;52.194;9.894;2022-12-07T16:59:55;15.27;;;1.67;;
13689;SDS011;6917;52.194;9.894;2022-12-07T17:02:20;1.60;;;1.50;;
13689;SDS011;6917;52.194;9.894;2022-12-07T17:04:46;3.57;;;3.27;;
13689;SDS011;6917;52.194;9.894;2022-12-07T17:07:11;1.50;;;1.40;;